createdAt,value
2023-03-22T00:04:43.404Z,13.72
2023-03-22T00:09:46.360Z,13.76
2023-03-22T00:14:50.234Z,13.64
2023-03-22T00:19:54.736Z,13.58
2023-03-22T00:24:58.144Z,13.60
2023-03-22T00:30:01.661Z,13.61
2023-03-22T00:35:06.387Z,13.62
2023-03-22T00:40:12.670Z,13.54
2023-03-22T00:45:15.741Z,13.68
2023-03-22T00:50:19.046Z,13.55
2023-03-22T00:55:22.531Z,13.24
2023-03-22T01:00:25.609Z,13.40
2023-03-22T01:05:28.810Z,13.53
2023-03-22T01:10:31.977Z,13.58
2023-03-22T01:15:34.746Z,13.56
2023-03-22T01:20:38.500Z,13.52
2023-03-22T01:25:42.170Z,13.39
2023-03-22T01:30:45.506Z,13.46
2023-03-22T01:35:48.721Z,13.34
2023-03-22T01:40:52.938Z,13.33
2023-03-22T01:45:56.366Z,13.33
2023-03-22T01:51:09.091Z,13.16
2023-03-22T01:56:44.052Z,13.07
2023-03-22T02:01:54.812Z,12.96
2023-03-22T02:06:59.310Z,12.94
2023-03-22T02:12:17.693Z,12.89
2023-03-22T02:17:45.480Z,12.68
2023-03-22T02:22:58.665Z,12.72
2023-03-22T02:28:35.438Z,12.68
2023-03-22T02:33:41.534Z,12.45
2023-03-22T02:39:14.403Z,12.36
2023-03-22T02:44:22.797Z,12.47
2023-03-22T02:49:35.062Z,12.47
2023-03-22T02:54:57.024Z,12.65
2023-03-22T03:00:01.634Z,12.54
2023-03-22T03:05:06.839Z,12.38
2023-03-22T03:10:15.009Z,12.38
2023-03-22T03:15:22.527Z,12.45
2023-03-22T03:20:47.341Z,12.82
2023-03-22T03:26:06.769Z,12.81
2023-03-22T03:31:27.425Z,12.97
2023-03-22T03:36:35.511Z,12.92
2023-03-22T03:41:43.012Z,13.04
2023-03-22T03:46:47.013Z,12.77
2023-03-22T03:51:54.301Z,12.82
2023-03-22T03:56:57.146Z,13.05
2023-03-22T04:02:00.652Z,12.96
2023-03-22T04:07:07.457Z,13.23
2023-03-22T04:12:12.807Z,13.19
2023-03-22T04:17:16.451Z,13.38
2023-03-22T04:22:20.520Z,13.45
2023-03-22T04:27:23.495Z,13.55
2023-03-22T04:32:32.566Z,13.79
2023-03-22T04:37:35.336Z,13.74
2023-03-22T04:42:58.277Z,13.89
2023-03-22T04:48:20.769Z,13.93
2023-03-22T04:53:28.171Z,14.01
2023-03-22T04:58:42.842Z,14.02
2023-03-22T05:03:47.706Z,14.09
2023-03-22T05:08:56.812Z,13.99
2023-03-22T05:14:01.365Z,13.98
2023-03-22T05:19:06.878Z,13.94
2023-03-22T05:24:12.414Z,13.95
2023-03-22T05:29:17.875Z,14.00
2023-03-22T05:34:36.555Z,14.21
2023-03-22T05:39:55.208Z,14.13
2023-03-22T05:45:07.158Z,14.46
2023-03-22T05:50:15.759Z,14.73
2023-03-22T05:55:19.276Z,15.07
2023-03-22T06:00:26.259Z,15.48
2023-03-22T06:06:11.034Z,15.60
2023-03-22T06:11:21.513Z,16.00
2023-03-22T06:16:25.745Z,16.43
2023-03-22T06:21:28.862Z,16.50
2023-03-22T06:26:32.233Z,16.72
2023-03-22T06:31:35.735Z,17.13
2023-03-22T06:36:47.720Z,17.25
2023-03-22T06:42:09.826Z,16.98
2023-03-22T06:47:14.858Z,17.62
2023-03-22T06:52:39.916Z,18.66
2023-03-22T06:57:49.905Z,19.18
2023-03-22T07:03:11.754Z,19.58
2023-03-22T07:08:23.341Z,19.84
2023-03-22T07:13:29.112Z,19.84
2023-03-22T07:18:44.198Z,20.35
2023-03-22T07:23:48.638Z,20.59
2023-03-22T07:28:54.948Z,20.24
2023-03-22T07:34:07.308Z,20.58
2023-03-22T07:39:26.045Z,20.47
2023-03-22T07:44:30.539Z,19.94
2023-03-22T07:49:53.946Z,19.74
2023-03-22T07:55:02.071Z,19.71
2023-03-22T08:00:12.180Z,19.42
2023-03-22T08:05:53.874Z,19.23
2023-03-22T08:10:59.140Z,19.34
2023-03-22T08:16:02.089Z,19.39
2023-03-22T08:21:08.367Z,19.32
2023-03-22T08:26:13.848Z,19.34
2023-03-22T08:31:19.049Z,19.42
2023-03-22T08:36:23.514Z,19.41
2023-03-22T08:41:36.664Z,19.49
2023-03-22T08:46:43.338Z,19.57
2023-03-22T08:51:49.903Z,19.58
2023-03-22T08:57:05.672Z,19.59
2023-03-22T09:02:20.485Z,19.55
2023-03-22T09:07:24.609Z,19.59
2023-03-22T09:12:49.657Z,19.65
2023-03-22T09:17:57.278Z,19.67
2023-03-22T09:23:00.415Z,19.71
2023-03-22T09:28:04.419Z,19.69
2023-03-22T09:33:08.660Z,19.75
2023-03-22T09:38:14.538Z,19.53
2023-03-22T09:43:21.418Z,19.68
2023-03-22T09:48:36.156Z,19.71
2023-03-22T09:53:38.559Z,19.62
2023-03-22T09:59:06.278Z,19.67
2023-03-22T10:04:21.809Z,19.67
2023-03-22T10:09:57.194Z,19.64
2023-03-22T10:15:04.542Z,19.79
2023-03-22T10:20:18.942Z,19.36
2023-03-22T10:25:28.406Z,19.31
2023-03-22T10:30:39.017Z,19.52
2023-03-22T10:35:44.948Z,19.59
2023-03-22T10:40:51.116Z,19.56
2023-03-22T10:45:57.234Z,19.44
2023-03-22T10:51:04.558Z,19.53
2023-03-22T10:56:14.125Z,19.46
2023-03-22T11:01:33.567Z,19.50
2023-03-22T11:06:50.166Z,19.47
2023-03-22T11:11:58.575Z,19.60
2023-03-22T11:17:10.924Z,19.62
2023-03-22T11:22:39.832Z,19.57
2023-03-22T11:27:57.961Z,19.58
2023-03-22T11:33:23.170Z,19.56
2023-03-22T11:38:32.638Z,19.46
2023-03-22T11:43:50.204Z,19.45
2023-03-22T11:49:01.316Z,19.54
2023-03-22T11:54:23.324Z,19.51
2023-03-22T11:59:32.872Z,19.54
2023-03-22T12:04:40.411Z,19.24
2023-03-22T12:10:09.194Z,18.88
2023-03-22T12:15:32.569Z,19.35
2023-03-22T12:21:01.144Z,19.28
2023-03-22T12:32:30.329Z,18.73
2023-03-22T12:37:43.436Z,19.10
2023-03-22T12:43:18.944Z,18.76
2023-03-22T12:49:05.417Z,18.55
2023-03-22T12:54:14.753Z,18.84
2023-03-22T12:59:26.029Z,18.75
2023-03-22T13:04:39.746Z,18.74
2023-03-22T13:09:50.039Z,18.64
2023-03-22T13:20:24.699Z,18.45
2023-03-22T13:25:32.133Z,18.29
2023-03-22T13:30:54.971Z,18.06
2023-03-22T13:36:29.722Z,18.28
2023-03-22T13:41:43.785Z,17.84
2023-03-22T13:47:34.774Z,18.07
2023-03-22T13:53:10.130Z,17.87
2023-03-22T13:58:33.338Z,17.85
2023-03-22T14:03:41.317Z,17.75
2023-03-22T14:08:47.511Z,17.65
2023-03-22T14:13:55.045Z,17.30
2023-03-22T14:18:58.296Z,17.21
